Albion, Illinois
Current Conditions -  °F | °C
As of 12:15 AM on Monday 26 Jan 2015 (Local Time) from KFWC Reporting Station
Overcast Overcast  
Wind Chill: 21°   Ceiling: 1500
Heat Index: 32°   Visibility: 10mi
Dew Point: 28°   Wind: 16mph
Humidity: 84%   Direction: 340°NNW
Pressure: 29.91"   Gusts: 22mph
Location:  38.38°N, 88.06°W
Report Text: KFWC 260615Z AUTO 34014G19KT 10SM OVC015 00/M02 A2991 RMK AO1 T00001024
Loading
Personal Weather Stations






























Interactive Weather Map New forecast layout! Learn more

10-Day Weather Forecast

Advertisements
Track Severe Weather on mobile